Time,TemperatureF,DewpointF,PressureIn,WindDirection,WindDirectionDegrees,WindSpeedMPH,WindSpeedGustMPH,Humidity,HourlyPrecipIn,Conditions,Clouds,dailyrainin,SoftwareType,DateUTC
2013-05-25 00:00:00,54.5,10.5,29.53,NNW,335,0.0,1.0,17,0.00,,,0.00,Wunderground v.1.15,2013-05-25 06:00:00,
2013-05-25 00:05:00,54.1,12.7,29.53,NNW,335,0.0,1.0,19,0.00,,,0.00,Wunderground v.1.15,2013-05-25 06:05:00,
2013-05-25 00:10:00,53.3,13.2,29.53,NNW,335,0.0,1.0,20,0.00,,,0.00,Wunderground v.1.15,2013-05-25 06:10:00,
2013-05-25 00:15:00,52.6,12.6,29.53,NNW,335,0.0,1.0,20,0.00,,,0.00,Wunderground v.1.15,2013-05-25 06:15:00,
2013-05-25 00:20:00,51.7,13.0,29.53,NNW,335,0.0,1.0,21,0.00,,,0.00,Wunderground v.1.15,2013-05-25 06:20:00,
2013-05-25 00:25:00,51.1,14.5,29.53,NNW,335,0.0,1.0,23,0.00,,,0.00,Wunderground v.1.15,2013-05-25 06:25:00,
2013-05-25 00:30:00,50.9,14.4,29.53,NNW,335,0.0,1.0,23,0.00,,,0.00,Wunderground v.1.15,2013-05-25 06:30:00,
2013-05-25 00:35:00,50.6,15.1,29.53,NNW,335,0.0,1.0,24,0.00,,,0.00,Wunderground v.1.15,2013-05-25 06:35:00,
2013-05-25 00:40:00,50.0,16.4,29.53,NNW,335,0.0,1.0,26,0.00,,,0.00,Wunderground v.1.15,2013-05-25 06:40:00,
2013-05-25 00:45:00,49.4,16.8,29.53,NNW,335,0.0,1.0,27,0.00,,,0.00,Wunderground v.1.15,2013-05-25 06:45:00,
2013-05-25 00:50:00,48.8,16.2,29.53,NNW,335,0.0,1.0,27,0.00,,,0.00,Wunderground v.1.15,2013-05-25 06:50:00,
2013-05-25 01:00:00,47.6,16.1,29.53,NNW,335,0.0,1.0,28,0.00,,,0.00,Wunderground v.1.15,2013-05-25 07:00:00,
2013-05-25 01:05:00,47.3,15.8,29.53,NNW,335,0.0,1.0,28,0.00,,,0.00,Wunderground v.1.15,2013-05-25 07:05:00,
2013-05-25 01:10:00,47.0,17.1,29.53,NNW,335,0.0,1.0,30,0.00,,,0.00,Wunderground v.1.15,2013-05-25 07:10:00,
2013-05-25 01:15:00,46.8,16.2,29.53,NNW,335,0.0,1.0,29,0.00,,,0.00,Wunderground v.1.15,2013-05-25 07:15:00,
2013-05-25 01:20:00,46.4,15.8,29.52,NNW,335,0.0,1.0,29,0.00,,,0.00,Wunderground v.1.15,2013-05-25 07:20:00,
2013-05-25 01:25:00,46.1,15.6,29.53,NNW,335,0.0,1.0,29,0.00,,,0.00,Wunderground v.1.15,2013-05-25 07:25:00,
2013-05-25 01:35:00,45.3,15.6,29.52,NNW,335,0.0,1.0,30,0.00,,,0.00,Wunderground v.1.15,2013-05-25 07:35:00,
2013-05-25 01:40:00,45.2,17.0,29.52,NNW,335,0.0,1.0,32,0.00,,,0.00,Wunderground v.1.15,2013-05-25 07:40:00,
2013-05-25 01:45:00,44.9,18.2,29.52,NNW,335,0.0,1.0,34,0.00,,,0.00,Wunderground v.1.15,2013-05-25 07:45:00,
2013-05-25 01:50:00,44.5,17.1,29.52,NNW,335,0.0,1.0,33,0.00,,,0.00,Wunderground v.1.15,2013-05-25 07:50:00,
2013-05-25 01:55:00,44.3,17.7,29.52,NNW,335,0.0,1.0,34,0.00,,,0.00,Wunderground v.1.15,2013-05-25 07:55:00,
2013-05-25 02:00:00,44.0,16.7,29.51,NNW,335,0.0,1.0,33,0.00,,,0.00,Wunderground v.1.15,2013-05-25 08:00:00,
2013-05-25 02:05:00,43.8,17.9,29.51,NNW,335,0.0,1.0,35,0.00,,,0.00,Wunderground v.1.15,2013-05-25 08:05:00,
2013-05-25 02:10:00,43.6,17.7,29.51,NNW,335,0.0,1.0,35,0.00,,,0.00,Wunderground v.1.15,2013-05-25 08:10:00,
2013-05-25 02:15:00,43.5,18.3,29.51,NNW,335,0.0,1.0,36,0.00,,,0.00,Wunderground v.1.15,2013-05-25 08:15:00,
2013-05-25 02:20:00,43.4,18.2,29.51,NNW,335,0.0,1.0,36,0.00,,,0.00,Wunderground v.1.15,2013-05-25 08:20:00,
2013-05-25 02:25:00,43.4,18.8,29.51,NNW,335,0.0,1.0,37,0.00,,,0.00,Wunderground v.1.15,2013-05-25 08:25:00,
2013-05-25 02:30:00,43.3,16.8,29.51,NNW,335,0.0,1.0,34,0.00,,,0.00,Wunderground v.1.15,2013-05-25 08:30:00,
2013-05-25 02:35:00,43.4,18.2,29.51,NNW,335,0.0,1.0,36,0.00,,,0.00,Wunderground v.1.15,2013-05-25 08:35:00,
2013-05-25 02:40:00,43.4,18.2,29.50,NNW,335,0.0,1.0,36,0.00,,,0.00,Wunderground v.1.15,2013-05-25 08:40:00,
2013-05-25 02:45:00,43.4,15.5,29.50,NNW,335,0.0,1.0,32,0.00,,,0.00,Wunderground v.1.15,2013-05-25 08:45:00,
2013-05-25 02:50:00,43.5,17.6,29.50,NNW,335,0.0,1.0,35,0.00,,,0.00,Wunderground v.1.15,2013-05-25 08:50:00,
2013-05-25 02:55:00,43.5,17.6,29.50,NNW,335,0.0,1.0,35,0.00,,,0.00,Wunderground v.1.15,2013-05-25 08:55:00,
2013-05-25 03:00:00,43.6,17.0,29.50,NNW,335,0.0,1.0,34,0.00,,,0.00,Wunderground v.1.15,2013-05-25 09:00:00,
2013-05-25 03:05:00,44.0,16.7,29.49,NNW,335,0.0,1.0,33,0.00,,,0.00,Wunderground v.1.15,2013-05-25 09:05:00,
2013-05-25 03:10:00,44.5,17.1,29.49,NNW,335,0.0,1.0,33,0.00,,,0.00,Wunderground v.1.15,2013-05-25 09:10:00,
2013-05-25 03:15:00,44.8,17.4,29.50,NNW,335,0.0,1.0,33,0.00,,,0.00,Wunderground v.1.15,2013-05-25 09:15:00,
2013-05-25 03:25:00,44.8,16.0,29.50,NNW,335,0.0,1.0,31,0.00,,,0.00,Wunderground v.1.15,2013-05-25 09:25:00,
2013-05-25 03:30:00,44.6,17.2,29.50,NNW,335,0.0,1.0,33,0.00,,,0.00,Wunderground v.1.15,2013-05-25 09:30:00,
2013-05-25 03:35:00,44.2,17.6,29.50,NNW,335,0.0,1.0,34,0.00,,,0.00,Wunderground v.1.15,2013-05-25 09:35:00,
2013-05-25 03:40:00,43.8,16.5,29.50,NNW,335,0.0,1.0,33,0.00,,,0.00,Wunderground v.1.15,2013-05-25 09:40:00,
2013-05-25 03:45:00,43.5,16.3,29.51,NNW,335,0.0,1.0,33,0.00,,,0.00,Wunderground v.1.15,2013-05-25 09:45:00,
2013-05-25 03:50:00,43.2,16.0,29.51,NNW,335,0.0,1.0,33,0.00,,,0.00,Wunderground v.1.15,2013-05-25 09:50:00,
2013-05-25 03:55:00,43.1,17.9,29.51,NNW,335,0.0,1.0,36,0.00,,,0.00,Wunderground v.1.15,2013-05-25 09:55:00,
2013-05-25 04:05:00,42.8,16.3,29.52,NNW,335,0.0,1.0,34,0.00,,,0.00,Wunderground v.1.15,2013-05-25 10:05:00,
2013-05-25 04:10:00,42.8,17.7,29.52,NNW,335,0.0,1.0,36,0.00,,,0.00,Wunderground v.1.15,2013-05-25 10:10:00,
2013-05-25 04:15:00,42.5,17.4,29.52,NNW,335,0.0,1.0,36,0.00,,,0.00,Wunderground v.1.15,2013-05-25 10:15:00,
2013-05-25 04:20:00,42.3,17.8,29.52,NNW,335,0.0,1.0,37,0.00,,,0.00,Wunderground v.1.15,2013-05-25 10:20:00,
2013-05-25 04:25:00,41.8,17.4,29.52,NNW,335,0.0,1.0,37,0.00,,,0.00,Wunderground v.1.15,2013-05-25 10:25:00,
2013-05-25 04:30:00,41.6,15.9,29.52,NNW,335,0.0,1.0,35,0.00,,,0.00,Wunderground v.1.15,2013-05-25 10:30:00,
2013-05-25 04:35:00,41.5,18.4,29.52,NNW,335,0.0,1.0,39,0.00,,,0.00,Wunderground v.1.15,2013-05-25 10:35:00,
2013-05-25 04:40:00,41.3,16.3,29.52,NNW,335,0.0,1.0,36,0.00,,,0.00,Wunderground v.1.15,2013-05-25 10:40:00,
2013-05-25 04:45:00,41.1,16.8,29.52,NNW,335,0.0,1.0,37,0.00,,,0.00,Wunderground v.1.15,2013-05-25 10:45:00,
2013-05-25 04:50:00,41.1,16.1,29.52,NNW,335,0.0,1.0,36,0.00,,,0.00,Wunderground v.1.15,2013-05-25 10:50:00,
2013-05-25 04:55:00,40.9,17.8,29.52,NNW,335,0.0,1.0,39,0.00,,,0.00,Wunderground v.1.15,2013-05-25 10:55:00,
2013-05-25 05:00:00,40.8,17.1,29.52,NNW,335,0.0,1.0,38,0.00,,,0.00,Wunderground v.1.15,2013-05-25 11:00:00,
2013-05-25 05:05:00,40.4,17.4,29.52,NNW,335,0.0,1.0,39,0.00,,,0.00,Wunderground v.1.15,2013-05-25 11:05:00,
2013-05-25 05:15:00,40.0,17.6,29.52,NNW,335,0.0,1.0,40,0.00,,,0.00,Wunderground v.1.15,2013-05-25 11:15:00,
2013-05-25 05:20:00,39.8,17.4,29.52,NNW,335,0.0,1.0,40,0.00,,,0.00,Wunderground v.1.15,2013-05-25 11:20:00,
2013-05-25 05:25:00,39.7,17.3,29.52,NNW,335,0.0,1.0,40,0.00,,,0.00,Wunderground v.1.15,2013-05-25 11:25:00,
2013-05-25 05:35:00,39.3,17.0,29.52,NNW,335,0.0,1.0,40,0.00,,,0.00,Wunderground v.1.15,2013-05-25 11:35:00,
2013-05-25 05:40:00,39.3,18.1,29.52,NNW,335,0.0,1.0,42,0.00,,,0.00,Wunderground v.1.15,2013-05-25 11:40:00,
2013-05-25 05:45:00,39.4,18.2,29.52,NNW,335,0.0,1.0,42,0.00,,,0.00,Wunderground v.1.15,2013-05-25 11:45:00,
2013-05-25 05:50:00,39.6,18.9,29.52,NNW,335,0.0,1.0,43,0.00,,,0.00,Wunderground v.1.15,2013-05-25 11:50:00,
2013-05-25 06:00:00,40.1,18.8,29.52,NNW,335,0.0,1.0,42,0.00,,,0.00,Wunderground v.1.15,2013-05-25 12:00:00,
2013-05-25 06:05:00,40.3,18.4,29.52,NNW,335,0.0,1.0,41,0.00,,,0.00,Wunderground v.1.15,2013-05-25 12:05:00,
2013-05-25 06:10:00,40.7,19.9,29.52,NNW,335,0.0,1.0,43,0.00,,,0.00,Wunderground v.1.15,2013-05-25 12:10:00,
2013-05-25 06:15:00,40.6,18.7,29.53,NNW,335,0.0,1.0,41,0.00,,,0.00,Wunderground v.1.15,2013-05-25 12:15:00,
2013-05-25 06:20:00,40.8,19.5,29.52,NNW,335,0.0,1.0,42,0.00,,,0.00,Wunderground v.1.15,2013-05-25 12:20:00,
2013-05-25 06:25:00,40.7,19.4,29.53,NNW,335,0.0,1.0,42,0.00,,,0.00,Wunderground v.1.15,2013-05-25 12:25:00,
2013-05-25 06:30:00,40.7,20.5,29.53,NNW,335,0.0,1.0,44,0.00,,,0.00,Wunderground v.1.15,2013-05-25 12:30:00,
2013-05-25 06:35:00,40.6,20.4,29.53,NNW,335,0.0,1.0,44,0.00,,,0.00,Wunderground v.1.15,2013-05-25 12:35:00,
2013-05-25 06:45:00,40.7,21.5,29.53,NNW,335,0.0,1.0,46,0.00,,,0.00,Wunderground v.1.15,2013-05-25 12:45:00,
2013-05-25 06:50:00,41.4,22.7,29.53,NNW,335,0.0,1.0,47,0.00,,,0.00,Wunderground v.1.15,2013-05-25 12:50:00,
2013-05-25 07:00:00,44.0,27.0,29.53,NNW,335,0.0,1.0,51,0.00,,,0.00,Wunderground v.1.15,2013-05-25 13:00:00,
2013-05-25 07:05:00,45.4,27.3,29.52,NNW,335,0.0,1.0,49,0.00,,,0.00,Wunderground v.1.15,2013-05-25 13:05:00,
2013-05-25 07:10:00,47.0,22.7,29.53,NW,316,0.0,1.0,38,0.00,,,0.00,Wunderground v.1.15,2013-05-25 13:10:00,
2013-05-25 07:15:00,49.1,27.0,29.53,NW,316,0.0,1.0,42,0.00,,,0.00,Wunderground v.1.15,2013-05-25 13:15:00,
2013-05-25 07:20:00,50.5,23.8,29.52,NW,316,0.0,1.0,35,0.00,,,0.00,Wunderground v.1.15,2013-05-25 13:20:00,
2013-05-25 07:25:00,52.8,21.4,29.52,WNW,292,0.0,1.0,29,0.00,,,0.00,Wunderground v.1.15,2013-05-25 13:25:00,
2013-05-25 07:30:00,54.8,19.6,29.53,NNW,348,0.0,1.0,25,0.00,,,0.00,Wunderground v.1.15,2013-05-25 13:30:00,
2013-05-25 07:35:00,56.2,18.8,29.53,South,178,0.0,1.0,23,0.00,,,0.00,Wunderground v.1.15,2013-05-25 13:35:00,
2013-05-25 07:40:00,57.4,18.8,29.53,South,173,0.0,1.0,22,0.00,,,0.00,Wunderground v.1.15,2013-05-25 13:40:00,
2013-05-25 07:45:00,58.5,20.8,29.52,NE,45,0.0,1.0,23,0.00,,,0.00,Wunderground v.1.15,2013-05-25 13:45:00,
2013-05-25 07:50:00,58.9,20.1,29.52,NW,321,0.0,1.0,22,0.00,,,0.00,Wunderground v.1.15,2013-05-25 13:50:00,
2013-05-25 07:55:00,59.2,19.2,29.52,NNE,23,0.0,1.0,21,0.00,,,0.00,Wunderground v.1.15,2013-05-25 13:55:00,
2013-05-25 08:00:00,59.7,19.6,29.53,NNE,28,0.0,1.0,21,0.00,,,0.00,Wunderground v.1.15,2013-05-25 14:00:00,
2013-05-25 08:05:00,60.1,20.0,29.53,SE,141,0.0,1.0,21,0.00,,,0.00,Wunderground v.1.15,2013-05-25 14:05:00,
2013-05-25 08:10:00,60.4,20.2,29.53,SE,141,0.0,1.0,21,0.00,,,0.00,Wunderground v.1.15,2013-05-25 14:10:00,
2013-05-25 08:15:00,60.3,20.2,29.52,ENE,59,1.0,1.0,21,0.00,,,0.00,Wunderground v.1.15,2013-05-25 14:15:00,
2013-05-25 08:20:00,60.3,19.0,29.52,ESE,102,1.0,1.0,20,0.00,,,0.00,Wunderground v.1.15,2013-05-25 14:20:00,
2013-05-25 08:25:00,60.7,19.3,29.52,SSE,155,1.0,5.0,20,0.00,,,0.00,Wunderground v.1.15,2013-05-25 14:25:00,
2013-05-25 08:30:00,61.1,20.8,29.52,SE,135,1.0,1.0,21,0.00,,,0.00,Wunderground v.1.15,2013-05-25 14:30:00,
2013-05-25 08:35:00,61.5,21.2,29.52,NNW,346,1.0,1.0,21,0.00,,,0.00,Wunderground v.1.15,2013-05-25 14:35:00,
2013-05-25 08:40:00,62.1,20.5,29.52,South,188,1.0,1.0,20,0.00,,,0.00,Wunderground v.1.15,2013-05-25 14:40:00,
2013-05-25 08:50:00,63.8,19.4,29.53,SSE,161,0.0,1.0,18,0.00,,,0.00,Wunderground v.1.15,2013-05-25 14:50:00,
2013-05-25 08:55:00,64.0,19.6,29.53,West,277,1.0,1.0,18,0.00,,,0.00,Wunderground v.1.15,2013-05-25 14:55:00,
2013-05-25 09:05:00,64.8,16.0,29.52,East,93,1.0,1.0,15,0.00,,,0.00,Wunderground v.1.15,2013-05-25 15:05:00,
2013-05-25 09:15:00,65.0,17.7,29.53,ESE,108,1.0,1.0,16,0.00,,,0.00,Wunderground v.1.15,2013-05-25 15:15:00,
2013-05-25 09:20:00,65.0,14.6,29.53,NE,55,1.0,1.0,14,0.00,,,0.00,Wunderground v.1.15,2013-05-25 15:20:00,
2013-05-25 09:25:00,64.6,15.8,29.53,ESE,117,1.0,1.0,15,0.00,,,0.00,Wunderground v.1.15,2013-05-25 15:25:00,
2013-05-25 09:30:00,64.6,15.8,29.53,South,180,1.0,1.0,15,0.00,,,0.00,Wunderground v.1.15,2013-05-25 15:30:00,
2013-05-25 09:35:00,64.9,16.1,29.53,WNW,302,1.0,1.0,15,0.00,,,0.00,Wunderground v.1.15,2013-05-25 15:35:00,
2013-05-25 09:40:00,65.2,14.7,29.53,South,191,0.0,1.0,14,0.00,,,0.00,Wunderground v.1.15,2013-05-25 15:40:00,
2013-05-25 09:45:00,65.6,15.1,29.53,SW,215,1.0,1.0,14,0.00,,,0.00,Wunderground v.1.15,2013-05-25 15:45:00,
2013-05-25 09:50:00,65.3,14.8,29.53,North,9,1.0,2.0,14,0.00,,,0.00,Wunderground v.1.15,2013-05-25 15:50:00,
2013-05-25 09:55:00,65.3,16.4,29.53,SSE,161,1.0,1.0,15,0.00,,,0.00,Wunderground v.1.15,2013-05-25 15:55:00,
2013-05-25 10:00:00,65.6,16.6,29.53,NW,317,1.0,1.0,15,0.00,,,0.00,Wunderground v.1.15,2013-05-25 16:00:00,
2013-05-25 10:05:00,65.5,16.6,29.52,West,263,2.0,2.0,15,0.00,,,0.00,Wunderground v.1.15,2013-05-25 16:05:00,
2013-05-25 10:10:00,65.8,16.8,29.53,NW,326,2.0,3.0,15,0.00,,,0.00,Wunderground v.1.15,2013-05-25 16:10:00,
2013-05-25 10:15:00,66.6,19.0,29.53,SSW,198,1.0,4.0,16,0.00,,,0.00,Wunderground v.1.15,2013-05-25 16:15:00,
2013-05-25 10:20:00,66.9,16.1,29.52,NNW,338,2.0,2.0,14,0.00,,,0.00,Wunderground v.1.15,2013-05-25 16:20:00,
2013-05-25 10:25:00,67.1,17.8,29.52,NE,51,1.0,3.0,15,0.00,,,0.00,Wunderground v.1.15,2013-05-25 16:25:00,
2013-05-25 10:30:00,67.7,18.3,29.52,SE,141,1.0,2.0,15,0.00,,,0.00,Wunderground v.1.15,2013-05-25 16:30:00,
2013-05-25 10:35:00,68.0,15.3,29.52,SW,236,2.0,2.0,13,0.00,,,0.00,Wunderground v.1.15,2013-05-25 16:35:00,
2013-05-25 10:40:00,68.1,15.3,29.52,North,5,2.0,2.0,13,0.00,,,0.00,Wunderground v.1.15,2013-05-25 16:40:00,
2013-05-25 10:45:00,68.0,13.4,29.52,South,182,2.0,2.0,12,0.00,,,0.00,Wunderground v.1.15,2013-05-25 16:45:00,
2013-05-25 10:50:00,68.0,15.3,29.53,SE,127,2.0,2.0,13,0.00,,,0.00,Wunderground v.1.15,2013-05-25 16:50:00,
2013-05-25 10:55:00,68.2,13.6,29.53,West,270,2.0,2.0,12,0.00,,,0.00,Wunderground v.1.15,2013-05-25 16:55:00,
2013-05-25 11:00:00,68.3,17.2,29.52,NE,53,2.0,2.0,14,0.00,,,0.00,Wunderground v.1.15,2013-05-25 17:00:00,
2013-05-25 11:05:00,68.8,14.1,29.53,South,182,3.0,4.0,12,0.00,,,0.00,Wunderground v.1.15,2013-05-25 17:05:00,
2013-05-25 11:10:00,68.5,13.8,29.52,SE,137,3.0,3.0,12,0.00,,,0.00,Wunderground v.1.15,2013-05-25 17:10:00,
2013-05-25 11:15:00,68.8,14.1,29.52,South,175,2.0,3.0,12,0.00,,,0.00,Wunderground v.1.15,2013-05-25 17:15:00,
2013-05-25 11:20:00,69.2,14.4,29.53,WNW,288,2.0,6.0,12,0.00,,,0.00,Wunderground v.1.15,2013-05-25 17:20:00,
2013-05-25 11:30:00,69.4,12.5,29.52,ENE,73,3.0,3.0,11,0.00,,,0.00,Wunderground v.1.15,2013-05-25 17:30:00,
2013-05-25 11:35:00,69.7,14.8,29.52,NE,36,3.0,3.0,12,0.00,,,0.00,Wunderground v.1.15,2013-05-25 17:35:00,
2013-05-25 11:45:00,69.1,12.3,29.51,ESE,114,2.0,6.0,11,0.00,,,0.00,Wunderground v.1.15,2013-05-25 17:45:00,
2013-05-25 11:50:00,68.3,11.7,29.51,NW,304,3.0,4.0,11,0.00,,,0.00,Wunderground v.1.15,2013-05-25 17:50:00,
2013-05-25 11:55:00,67.7,11.2,29.51,ENE,67,3.0,4.0,11,0.00,,,0.00,Wunderground v.1.15,2013-05-25 17:55:00,
2013-05-25 12:00:00,67.1,10.8,29.50,NNW,331,3.0,3.0,11,0.00,,,0.00,Wunderground v.1.15,2013-05-25 18:00:00,
2013-05-25 12:05:00,67.6,11.1,29.50,East,84,4.0,7.0,11,0.00,,,0.00,Wunderground v.1.15,2013-05-25 18:05:00,
2013-05-25 12:10:00,67.9,11.4,29.50,SE,144,4.0,4.0,11,0.00,,,0.00,Wunderground v.1.15,2013-05-25 18:10:00,
2013-05-25 12:15:00,68.0,13.4,29.50,SSE,162,4.0,4.0,12,0.00,,,0.00,Wunderground v.1.15,2013-05-25 18:15:00,
2013-05-25 12:20:00,68.5,11.8,29.50,SE,146,3.0,3.0,11,0.00,,,0.00,Wunderground v.1.15,2013-05-25 18:20:00,
2013-05-25 12:25:00,68.9,10.0,29.50,SE,142,3.0,3.0,10,0.00,,,0.00,Wunderground v.1.15,2013-05-25 18:25:00,
2013-05-25 12:30:00,68.9,12.2,29.50,ENE,67,4.0,4.0,11,0.00,,,0.00,Wunderground v.1.15,2013-05-25 18:30:00,
2013-05-25 12:35:00,68.9,12.2,29.49,NE,43,4.0,5.0,11,0.00,,,0.00,Wunderground v.1.15,2013-05-25 18:35:00,
2013-05-25 12:40:00,68.9,10.0,29.50,SE,133,3.0,4.0,10,0.00,,,0.00,Wunderground v.1.15,2013-05-25 18:40:00,
2013-05-25 12:45:00,68.3,11.7,29.49,ENE,71,3.0,4.0,11,0.00,,,0.00,Wunderground v.1.15,2013-05-25 18:45:00,
2013-05-25 12:55:00,69.7,12.8,29.49,ENE,61,2.0,3.0,11,0.00,,,0.00,Wunderground v.1.15,2013-05-25 18:55:00,
2013-05-25 13:00:00,70.9,11.5,29.49,East,95,3.0,4.0,10,0.00,,,0.00,Wunderground v.1.15,2013-05-25 19:00:00,
2013-05-25 13:05:00,71.0,11.6,29.49,North,355,4.0,4.0,10,0.00,,,0.00,Wunderground v.1.15,2013-05-25 19:05:00,
2013-05-25 13:10:00,70.9,9.2,29.49,SSE,158,4.0,6.0,9,0.00,,,0.00,Wunderground v.1.15,2013-05-25 19:10:00,
2013-05-25 13:15:00,70.8,11.5,29.49,North,360,3.0,6.0,10,0.00,,,0.00,Wunderground v.1.15,2013-05-25 19:15:00,
2013-05-25 13:20:00,71.3,11.8,29.49,SW,225,2.0,3.0,10,0.00,,,0.00,Wunderground v.1.15,2013-05-25 19:20:00,
2013-05-25 13:30:00,71.9,9.9,29.49,NE,38,3.0,5.0,9,0.00,,,0.00,Wunderground v.1.15,2013-05-25 19:30:00,
2013-05-25 13:35:00,72.1,10.1,29.48,SSE,159,3.0,7.0,9,0.00,,,0.00,Wunderground v.1.15,2013-05-25 19:35:00,
2013-05-25 13:40:00,72.6,7.8,29.48,South,177,3.0,5.0,8,0.00,,,0.00,Wunderground v.1.15,2013-05-25 19:40:00,
2013-05-25 13:45:00,72.3,7.6,29.47,WSW,242,4.0,6.0,8,0.00,,,0.00,Wunderground v.1.15,2013-05-25 19:45:00,
2013-05-25 13:50:00,72.4,7.7,29.48,East,99,5.0,7.0,8,0.00,,,0.00,Wunderground v.1.15,2013-05-25 19:50:00,
2013-05-25 14:00:00,73.2,5.3,29.47,NNE,33,5.0,6.0,7,0.00,,,0.00,Wunderground v.1.15,2013-05-25 20:00:00,
2013-05-25 14:05:00,72.9,5.1,29.48,WSW,248,3.0,6.0,7,0.00,,,0.00,Wunderground v.1.15,2013-05-25 20:05:00,
2013-05-25 14:15:00,72.5,4.8,29.47,East,81,2.0,3.0,7,0.00,,,0.00,Wunderground v.1.15,2013-05-25 20:15:00,
2013-05-25 14:20:00,72.4,4.7,29.47,SE,134,1.0,1.0,7,0.00,,,0.00,Wunderground v.1.15,2013-05-25 20:20:00,
2013-05-25 14:25:00,72.0,7.4,29.47,NE,40,2.0,2.0,8,0.00,,,0.00,Wunderground v.1.15,2013-05-25 20:25:00,
2013-05-25 14:30:00,72.7,7.9,29.47,North,355,3.0,3.0,8,0.00,,,0.00,Wunderground v.1.15,2013-05-25 20:30:00,
2013-05-25 14:35:00,73.6,8.6,29.46,SSE,166,2.0,3.0,8,0.00,,,0.00,Wunderground v.1.15,2013-05-25 20:35:00,
2013-05-25 14:40:00,74.0,5.9,29.46,ENE,61,3.0,5.0,7,0.00,,,0.00,Wunderground v.1.15,2013-05-25 20:40:00,
2013-05-25 14:45:00,73.4,5.5,29.47,SSE,156,6.0,6.0,7,0.00,,,0.00,Wunderground v.1.15,2013-05-25 20:45:00,
2013-05-25 14:50:00,73.0,8.1,29.46,SE,138,6.0,6.0,8,0.00,,,0.00,Wunderground v.1.15,2013-05-25 20:50:00,
2013-05-25 14:55:00,73.0,5.2,29.47,South,174,5.0,12.0,7,0.00,,,0.00,Wunderground v.1.15,2013-05-25 20:55:00,
2013-05-25 15:00:00,72.6,7.8,29.46,SSE,159,5.0,7.0,8,0.00,,,0.00,Wunderground v.1.15,2013-05-25 21:00:00,
2013-05-25 15:05:00,73.1,8.2,29.46,SSE,163,4.0,7.0,8,0.00,,,0.00,Wunderground v.1.15,2013-05-25 21:05:00,
2013-05-25 15:10:00,72.9,8.1,29.46,East,98,4.0,4.0,8,0.00,,,0.00,Wunderground v.1.15,2013-05-25 21:10:00,
2013-05-25 15:15:00,73.1,8.2,29.46,SW,216,4.0,4.0,8,0.00,,,0.00,Wunderground v.1.15,2013-05-25 21:15:00,
2013-05-25 15:20:00,73.1,5.3,29.45,NE,56,3.0,3.0,7,0.00,,,0.00,Wunderground v.1.15,2013-05-25 21:20:00,
2013-05-25 15:25:00,72.6,7.8,29.45,NE,45,3.0,3.0,8,0.00,,,0.00,Wunderground v.1.15,2013-05-25 21:25:00,
2013-05-25 15:35:00,72.6,7.8,29.45,SSW,204,3.0,6.0,8,0.00,,,0.00,Wunderground v.1.15,2013-05-25 21:35:00,
2013-05-25 15:40:00,73.3,8.4,29.45,ENE,57,3.0,3.0,8,0.00,,,0.00,Wunderground v.1.15,2013-05-25 21:40:00,
2013-05-25 15:50:00,73.5,8.5,29.45,South,188,4.0,4.0,8,0.00,,,0.00,Wunderground v.1.15,2013-05-25 21:50:00,
2013-05-25 16:00:00,73.3,8.4,29.45,East,88,3.0,3.0,8,0.00,,,0.00,Wunderground v.1.15,2013-05-25 22:00:00,
2013-05-25 16:05:00,73.3,8.4,29.45,SSE,152,4.0,4.0,8,0.00,,,0.00,Wunderground v.1.15,2013-05-25 22:05:00,
2013-05-25 16:10:00,73.5,8.5,29.44,SSE,159,3.0,3.0,8,0.00,,,0.00,Wunderground v.1.15,2013-05-25 22:10:00,
2013-05-25 16:15:00,73.3,8.4,29.44,SSW,196,4.0,4.0,8,0.00,,,0.00,Wunderground v.1.15,2013-05-25 22:15:00,
2013-05-25 16:20:00,73.1,8.2,29.44,South,177,5.0,12.0,8,0.00,,,0.00,Wunderground v.1.15,2013-05-25 22:20:00,
2013-05-25 16:25:00,72.9,8.1,29.44,SE,142,4.0,12.0,8,0.00,,,0.00,Wunderground v.1.15,2013-05-25 22:25:00,
2013-05-25 16:30:00,72.7,7.9,29.43,SSE,155,4.0,5.0,8,0.00,,,0.00,Wunderground v.1.15,2013-05-25 22:30:00,
2013-05-25 16:35:00,72.8,8.0,29.43,South,170,3.0,5.0,8,0.00,,,0.00,Wunderground v.1.15,2013-05-25 22:35:00,
2013-05-25 16:40:00,72.8,8.0,29.43,East,98,4.0,4.0,8,0.00,,,0.00,Wunderground v.1.15,2013-05-25 22:40:00,
2013-05-25 16:45:00,72.8,8.0,29.42,North,350,5.0,5.0,8,0.00,,,0.00,Wunderground v.1.15,2013-05-25 22:45:00,
2013-05-25 16:50:00,72.8,8.0,29.42,South,171,4.0,7.0,8,0.00,,,0.00,Wunderground v.1.15,2013-05-25 22:50:00,
2013-05-25 16:55:00,72.6,7.8,29.42,North,5,5.0,7.0,8,0.00,,,0.00,Wunderground v.1.15,2013-05-25 22:55:00,
2013-05-25 17:00:00,72.8,8.0,29.42,SE,142,4.0,4.0,8,0.00,,,0.00,Wunderground v.1.15,2013-05-25 23:00:00,
2013-05-25 17:05:00,73.0,8.1,29.41,NNW,340,2.0,4.0,8,0.00,,,0.00,Wunderground v.1.15,2013-05-25 23:05:00,
2013-05-25 17:10:00,73.3,8.4,29.41,SE,125,2.0,2.0,8,0.00,,,0.00,Wunderground v.1.15,2013-05-25 23:10:00,
2013-05-25 17:15:00,73.6,8.6,29.41,SW,229,2.0,2.0,8,0.00,,,0.00,Wunderground v.1.15,2013-05-25 23:15:00,
2013-05-25 17:20:00,73.7,5.7,29.40,WNW,291,1.0,5.0,7,0.00,,,0.00,Wunderground v.1.15,2013-05-25 23:20:00,
2013-05-25 17:25:00,73.6,8.6,29.41,WNW,302,1.0,5.0,8,0.00,,,0.00,Wunderground v.1.15,2013-05-25 23:25:00,
2013-05-25 17:30:00,73.6,5.6,29.41,ENE,77,2.0,2.0,7,0.00,,,0.00,Wunderground v.1.15,2013-05-25 23:30:00,
2013-05-25 17:35:00,73.3,5.4,29.40,South,181,3.0,3.0,7,0.00,,,0.00,Wunderground v.1.15,2013-05-25 23:35:00,
2013-05-25 17:40:00,73.1,8.2,29.40,ENE,75,2.0,2.0,8,0.00,,,0.00,Wunderground v.1.15,2013-05-25 23:40:00,
2013-05-25 17:50:00,72.8,8.0,29.40,ESE,112,3.0,3.0,8,0.00,,,0.00,Wunderground v.1.15,2013-05-25 23:50:00,
2013-05-25 17:55:00,72.9,5.1,29.40,SSE,164,2.0,5.0,7,0.00,,,0.00,Wunderground v.1.15,2013-05-25 23:55:00,
2013-05-25 18:00:00,72.8,8.0,29.40,SE,130,1.0,1.0,8,0.00,,,0.00,Wunderground v.1.15,2013-05-26 00:00:00,
2013-05-25 18:05:00,72.5,4.8,29.40,NW,309,2.0,8.0,7,0.00,,,0.00,Wunderground v.1.15,2013-05-26 00:05:00,
2013-05-25 18:10:00,71.8,7.2,29.40,SSE,154,2.0,11.0,8,0.00,,,0.00,Wunderground v.1.15,2013-05-26 00:10:00,
2013-05-25 18:20:00,70.8,6.5,29.40,SE,146,2.0,2.0,8,0.00,,,0.00,Wunderground v.1.15,2013-05-26 00:20:00,
2013-05-25 18:30:00,70.2,6.0,29.40,SE,130,1.0,1.0,8,0.00,,,0.00,Wunderground v.1.15,2013-05-26 00:30:00,
2013-05-25 18:35:00,69.8,5.7,29.40,SSE,152,2.0,2.0,8,0.00,,,0.00,Wunderground v.1.15,2013-05-26 00:35:00,
2013-05-25 18:45:00,69.2,7.9,29.40,SE,136,1.0,2.0,9,0.00,,,0.00,Wunderground v.1.15,2013-05-26 00:45:00,
2013-05-25 18:50:00,68.8,7.6,29.40,SSE,157,1.0,1.0,9,0.00,,,0.00,Wunderground v.1.15,2013-05-26 00:50:00,
2013-05-25 18:55:00,68.5,9.7,29.40,ENE,64,1.0,1.0,10,0.00,,,0.00,Wunderground v.1.15,2013-05-26 00:55:00,
2013-05-25 19:00:00,68.1,7.1,29.40,SE,126,1.0,1.0,9,0.00,,,0.00,Wunderground v.1.15,2013-05-26 01:00:00,
2013-05-25 19:05:00,67.8,6.8,29.40,South,169,2.0,5.0,9,0.00,,,0.00,Wunderground v.1.15,2013-05-26 01:05:00,
2013-05-25 19:10:00,67.7,9.1,29.40,South,190,1.0,1.0,10,0.00,,,0.00,Wunderground v.1.15,2013-05-26 01:10:00,
2013-05-25 19:15:00,67.5,6.6,29.40,WSW,247,2.0,2.0,9,0.00,,,0.00,Wunderground v.1.15,2013-05-26 01:15:00,
2013-05-25 19:25:00,67.0,8.5,29.40,West,279,0.0,1.0,10,0.00,,,0.00,Wunderground v.1.15,2013-05-26 01:25:00,
2013-05-25 19:30:00,66.5,10.3,29.40,West,279,0.0,1.0,11,0.00,,,0.00,Wunderground v.1.15,2013-05-26 01:30:00,
2013-05-25 19:35:00,65.9,9.8,29.41,SW,214,0.0,2.0,11,0.00,,,0.00,Wunderground v.1.15,2013-05-26 01:35:00,
2013-05-25 19:40:00,65.7,7.6,29.41,ESE,123,0.0,1.0,10,0.00,,,0.00,Wunderground v.1.15,2013-05-26 01:40:00,
2013-05-25 19:50:00,65.2,9.3,29.41,NE,43,1.0,1.0,11,0.00,,,0.00,Wunderground v.1.15,2013-05-26 01:50:00,
2013-05-25 20:00:00,64.6,8.8,29.41,SSW,193,0.0,1.0,11,0.00,,,0.00,Wunderground v.1.15,2013-05-26 02:00:00,
2013-05-25 20:05:00,64.5,10.7,29.41,SE,128,0.0,2.0,12,0.00,,,0.00,Wunderground v.1.15,2013-05-26 02:05:00,
2013-05-25 20:10:00,64.1,12.2,29.41,ESE,107,0.0,1.0,13,0.00,,,0.00,Wunderground v.1.15,2013-05-26 02:10:00,
2013-05-25 20:15:00,63.6,10.0,29.41,ESE,105,0.0,1.0,12,0.00,,,0.00,Wunderground v.1.15,2013-05-26 02:15:00,
2013-05-25 20:20:00,63.5,9.9,29.41,East,97,0.0,1.0,12,0.00,,,0.00,Wunderground v.1.15,2013-05-26 02:20:00,
2013-05-25 20:25:00,63.1,11.4,29.41,SW,223,0.0,1.0,13,0.00,,,0.00,Wunderground v.1.15,2013-05-26 02:25:00,
2013-05-25 20:30:00,63.1,9.6,29.41,ENE,59,0.0,1.0,12,0.00,,,0.00,Wunderground v.1.15,2013-05-26 02:30:00,
2013-05-25 20:35:00,62.8,11.1,29.42,NE,44,0.0,1.0,13,0.00,,,0.00,Wunderground v.1.15,2013-05-26 02:35:00,
2013-05-25 20:40:00,62.7,9.3,29.42,NE,44,0.0,1.0,12,0.00,,,0.00,Wunderground v.1.15,2013-05-26 02:40:00,
2013-05-25 20:45:00,62.7,12.7,29.42,NE,53,0.0,1.0,14,0.00,,,0.00,Wunderground v.1.15,2013-05-26 02:45:00,
2013-05-25 20:50:00,62.2,12.3,29.42,NE,53,0.0,1.0,14,0.00,,,0.00,Wunderground v.1.15,2013-05-26 02:50:00,
2013-05-25 20:55:00,61.7,11.9,29.42,NE,53,0.0,1.0,14,0.00,,,0.00,Wunderground v.1.15,2013-05-26 02:55:00,
2013-05-25 21:00:00,60.8,12.8,29.42,NE,53,0.0,1.0,15,0.00,,,0.00,Wunderground v.1.15,2013-05-26 03:00:00,
2013-05-25 21:05:00,59.9,12.1,29.43,NE,53,0.0,1.0,15,0.00,,,0.00,Wunderground v.1.15,2013-05-26 03:05:00,
2013-05-25 21:10:00,59.3,13.0,29.42,NE,53,0.0,1.0,16,0.00,,,0.00,Wunderground v.1.15,2013-05-26 03:10:00,
2013-05-25 21:25:00,57.8,13.2,29.43,NNW,328,0.0,1.0,17,0.00,,,0.00,Wunderground v.1.15,2013-05-26 03:25:00,
2013-05-25 21:30:00,57.1,12.6,29.44,NNW,328,0.0,1.0,17,0.00,,,0.00,Wunderground v.1.15,2013-05-26 03:30:00,
2013-05-25 21:45:00,56.1,11.8,29.44,NNW,328,0.0,1.0,17,0.00,,,0.00,Wunderground v.1.15,2013-05-26 03:45:00,
2013-05-25 21:50:00,56.0,13.0,29.45,NNW,328,0.0,1.0,18,0.00,,,0.00,Wunderground v.1.15,2013-05-26 03:50:00,
2013-05-25 21:55:00,55.8,12.9,29.45,NNW,328,0.0,1.0,18,0.00,,,0.00,Wunderground v.1.15,2013-05-26 03:55:00,
2013-05-25 22:00:00,55.6,13.9,29.45,NNW,328,0.0,1.0,19,0.00,,,0.00,Wunderground v.1.15,2013-05-26 04:00:00,
2013-05-25 22:05:00,55.3,12.4,29.45,NNW,328,0.0,1.0,18,0.00,,,0.00,Wunderground v.1.15,2013-05-26 04:05:00,
2013-05-25 22:10:00,54.8,13.3,29.45,NNW,328,0.0,1.0,19,0.00,,,0.00,Wunderground v.1.15,2013-05-26 04:10:00,
2013-05-25 22:15:00,54.5,14.2,29.45,NNW,328,0.0,1.0,20,0.00,,,0.00,Wunderground v.1.15,2013-05-26 04:15:00,
2013-05-25 22:20:00,54.0,13.8,29.44,NNW,328,0.0,1.0,20,0.00,,,0.00,Wunderground v.1.15,2013-05-26 04:20:00,
2013-05-25 22:25:00,53.4,14.4,29.44,NNW,328,0.0,1.0,21,0.00,,,0.00,Wunderground v.1.15,2013-05-26 04:25:00,
2013-05-25 22:30:00,53.0,15.1,29.44,NNW,328,0.0,1.0,22,0.00,,,0.00,Wunderground v.1.15,2013-05-26 04:30:00,
2013-05-25 22:35:00,52.8,14.9,29.44,NNW,328,0.0,1.0,22,0.00,,,0.00,Wunderground v.1.15,2013-05-26 04:35:00,
2013-05-25 22:45:00,53.1,15.2,29.44,NNW,328,0.0,1.0,22,0.00,,,0.00,Wunderground v.1.15,2013-05-26 04:45:00,
2013-05-25 22:50:00,53.5,15.5,29.45,NNW,328,0.0,1.0,22,0.00,,,0.00,Wunderground v.1.15,2013-05-26 04:50:00,
2013-05-25 22:55:00,53.6,15.6,29.45,NNW,328,0.0,1.0,22,0.00,,,0.00,Wunderground v.1.15,2013-05-26 04:55:00,
2013-05-25 23:00:00,53.4,16.5,29.45,NNW,328,0.0,1.0,23,0.00,,,0.00,Wunderground v.1.15,2013-05-26 05:00:00,
2013-05-25 23:10:00,52.4,17.6,29.45,NNW,328,0.0,1.0,25,0.00,,,0.00,Wunderground v.1.15,2013-05-26 05:10:00,
2013-05-25 23:15:00,51.9,17.1,29.46,NNW,328,0.0,1.0,25,0.00,,,0.00,Wunderground v.1.15,2013-05-26 05:15:00,
2013-05-25 23:20:00,51.3,17.5,29.46,NNW,328,0.0,1.0,26,0.00,,,0.00,Wunderground v.1.15,2013-05-26 05:20:00,
2013-05-25 23:30:00,50.3,18.4,29.46,NNW,328,0.0,1.0,28,0.00,,,0.00,Wunderground v.1.15,2013-05-26 05:30:00,
2013-05-25 23:35:00,49.6,17.8,29.46,NNW,328,0.0,1.0,28,0.00,,,0.00,Wunderground v.1.15,2013-05-26 05:35:00,
2013-05-25 23:40:00,49.4,17.6,29.46,NNW,328,0.0,1.0,28,0.00,,,0.00,Wunderground v.1.15,2013-05-26 05:40:00,
2013-05-25 23:45:00,49.1,18.2,29.46,NNW,328,0.0,1.0,29,0.00,,,0.00,Wunderground v.1.15,2013-05-26 05:45:00,
2013-05-25 23:50:00,48.9,17.2,29.46,NNW,328,0.0,1.0,28,0.00,,,0.00,Wunderground v.1.15,2013-05-26 05:50:00,